sensor_id;sensor_type;location;lat;lon;timestamp;P1;durP1;ratioP1;P2;durP2;ratioP2
75316;SDS011;63913;51.492;10.368;2023-07-20T00:01:10;3.50;;;2.22;;
75316;SDS011;63913;51.492;10.368;2023-07-20T00:03:36;3.65;;;2.47;;
75316;SDS011;63913;51.492;10.368;2023-07-20T00:06:01;4.35;;;2.50;;
75316;SDS011;63913;51.492;10.368;2023-07-20T00:08:27;4.55;;;2.72;;
75316;SDS011;63913;51.492;10.368;2023-07-20T00:10:52;4.82;;;2.70;;
75316;SDS011;63913;51.492;10.368;2023-07-20T00:13:17;4.07;;;2.72;;
75316;SDS011;63913;51.492;10.368;2023-07-20T00:15:44;4.30;;;2.65;;
75316;SDS011;63913;51.492;10.368;2023-07-20T00:18:09;3.78;;;2.78;;
75316;SDS011;63913;51.492;10.368;2023-07-20T00:20:35;3.67;;;2.67;;
75316;SDS011;63913;51.492;10.368;2023-07-20T00:23:00;4.22;;;2.55;;
75316;SDS011;63913;51.492;10.368;2023-07-20T00:25:26;4.65;;;2.67;;
75316;SDS011;63913;51.492;10.368;2023-07-20T00:27:51;3.60;;;2.60;;
75316;SDS011;63913;51.492;10.368;2023-07-20T00:30:18;3.17;;;2.30;;
75316;SDS011;63913;51.492;10.368;2023-07-20T00:32:43;3.83;;;2.78;;
75316;SDS011;63913;51.492;10.368;2023-07-20T00:35:09;5.35;;;3.30;;
75316;SDS011;63913;51.492;10.368;2023-07-20T00:37:36;4.78;;;3.10;;
75316;SDS011;63913;51.492;10.368;2023-07-20T00:40:01;5.53;;;3.75;;
75316;SDS011;63913;51.492;10.368;2023-07-20T00:42:30;4.28;;;3.55;;
75316;SDS011;63913;51.492;10.368;2023-07-20T00:44:56;8.23;;;3.70;;
75316;SDS011;63913;51.492;10.368;2023-07-20T00:47:21;6.53;;;3.80;;
75316;SDS011;63913;51.492;10.368;2023-07-20T00:49:47;5.32;;;3.47;;
75316;SDS011;63913;51.492;10.368;2023-07-20T00:52:13;4.07;;;3.63;;
75316;SDS011;63913;51.492;10.368;2023-07-20T00:54:41;3.92;;;3.25;;
75316;SDS011;63913;51.492;10.368;2023-07-20T00:57:08;4.72;;;3.78;;
75316;SDS011;63913;51.492;10.368;2023-07-20T00:59:34;6.15;;;4.05;;
75316;SDS011;63913;51.492;10.368;2023-07-20T01:02:01;9.60;;;4.70;;
75316;SDS011;63913;51.492;10.368;2023-07-20T01:04:27;10.50;;;5.40;;
75316;SDS011;63913;51.492;10.368;2023-07-20T01:07:05;9.07;;;5.57;;
75316;SDS011;63913;51.492;10.368;2023-07-20T01:09:46;5.28;;;3.83;;
75316;SDS011;63913;51.492;10.368;2023-07-20T01:14:51;3.92;;;3.20;;
75316;SDS011;63913;51.492;10.368;2023-07-20T01:17:17;4.47;;;2.90;;
75316;SDS011;63913;51.492;10.368;2023-07-20T01:19:43;3.38;;;2.45;;
75316;SDS011;63913;51.492;10.368;2023-07-20T01:25:19;2.70;;;2.22;;
75316;SDS011;63913;51.492;10.368;2023-07-20T01:31:07;3.22;;;2.55;;
75316;SDS011;63913;51.492;10.368;2023-07-20T01:33:33;4.55;;;2.70;;
75316;SDS011;63913;51.492;10.368;2023-07-20T01:35:59;4.45;;;2.92;;
75316;SDS011;63913;51.492;10.368;2023-07-20T01:38:27;4.35;;;3.03;;
75316;SDS011;63913;51.492;10.368;2023-07-20T01:40:53;3.58;;;2.67;;
75316;SDS011;63913;51.492;10.368;2023-07-20T01:43:19;3.05;;;2.55;;
75316;SDS011;63913;51.492;10.368;2023-07-20T01:45:45;4.20;;;2.90;;
75316;SDS011;63913;51.492;10.368;2023-07-20T01:48:12;3.65;;;2.92;;
75316;SDS011;63913;51.492;10.368;2023-07-20T01:50:37;2.17;;;1.95;;
75316;SDS011;63913;51.492;10.368;2023-07-20T01:53:03;3.45;;;2.78;;
75316;SDS011;63913;51.492;10.368;2023-07-20T01:55:29;8.32;;;2.80;;
75316;SDS011;63913;51.492;10.368;2023-07-20T01:57:54;4.30;;;2.80;;
75316;SDS011;63913;51.492;10.368;2023-07-20T02:00:20;4.00;;;2.60;;
75316;SDS011;63913;51.492;10.368;2023-07-20T02:02:50;4.43;;;2.30;;
75316;SDS011;63913;51.492;10.368;2023-07-20T02:05:15;3.80;;;2.75;;
75316;SDS011;63913;51.492;10.368;2023-07-20T02:07:41;3.95;;;2.38;;
75316;SDS011;63913;51.492;10.368;2023-07-20T02:10:07;3.60;;;2.65;;
75316;SDS011;63913;51.492;10.368;2023-07-20T02:12:34;3.92;;;2.58;;
75316;SDS011;63913;51.492;10.368;2023-07-20T02:14:59;3.53;;;2.28;;
75316;SDS011;63913;51.492;10.368;2023-07-20T02:17:26;3.72;;;2.83;;
75316;SDS011;63913;51.492;10.368;2023-07-20T02:19:55;4.03;;;2.47;;
75316;SDS011;63913;51.492;10.368;2023-07-20T02:22:22;3.35;;;2.72;;
75316;SDS011;63913;51.492;10.368;2023-07-20T02:24:48;2.97;;;2.67;;
75316;SDS011;63913;51.492;10.368;2023-07-20T02:27:15;5.20;;;3.13;;
75316;SDS011;63913;51.492;10.368;2023-07-20T02:29:40;5.03;;;2.88;;
75316;SDS011;63913;51.492;10.368;2023-07-20T02:32:07;6.63;;;2.67;;
75316;SDS011;63913;51.492;10.368;2023-07-20T02:34:33;6.00;;;3.50;;
75316;SDS011;63913;51.492;10.368;2023-07-20T02:36:58;5.40;;;3.53;;
75316;SDS011;63913;51.492;10.368;2023-07-20T02:39:26;4.68;;;3.10;;
75316;SDS011;63913;51.492;10.368;2023-07-20T02:41:52;5.65;;;3.72;;
75316;SDS011;63913;51.492;10.368;2023-07-20T02:44:18;4.15;;;3.15;;
75316;SDS011;63913;51.492;10.368;2023-07-20T02:46:43;4.50;;;3.17;;
75316;SDS011;63913;51.492;10.368;2023-07-20T02:49:08;4.63;;;3.30;;
75316;SDS011;63913;51.492;10.368;2023-07-20T02:51:34;6.05;;;3.70;;
75316;SDS011;63913;51.492;10.368;2023-07-20T02:54:00;5.40;;;3.20;;
75316;SDS011;63913;51.492;10.368;2023-07-20T02:56:26;6.75;;;3.45;;
75316;SDS011;63913;51.492;10.368;2023-07-20T02:58:52;5.75;;;3.40;;
75316;SDS011;63913;51.492;10.368;2023-07-20T03:01:17;5.45;;;3.72;;
75316;SDS011;63913;51.492;10.368;2023-07-20T03:03:43;4.60;;;3.55;;
75316;SDS011;63913;51.492;10.368;2023-07-20T03:06:14;7.35;;;3.60;;
75316;SDS011;63913;51.492;10.368;2023-07-20T03:08:41;5.88;;;3.97;;
75316;SDS011;63913;51.492;10.368;2023-07-20T03:11:07;4.85;;;3.70;;
75316;SDS011;63913;51.492;10.368;2023-07-20T03:13:32;7.93;;;3.60;;
75316;SDS011;63913;51.492;10.368;2023-07-20T03:15:58;6.35;;;3.47;;
75316;SDS011;63913;51.492;10.368;2023-07-20T03:18:24;3.50;;;3.03;;
75316;SDS011;63913;51.492;10.368;2023-07-20T03:20:49;4.05;;;2.97;;
75316;SDS011;63913;51.492;10.368;2023-07-20T03:23:14;4.35;;;3.53;;
75316;SDS011;63913;51.492;10.368;2023-07-20T03:25:41;5.00;;;3.10;;
75316;SDS011;63913;51.492;10.368;2023-07-20T03:28:06;6.05;;;3.72;;
75316;SDS011;63913;51.492;10.368;2023-07-20T03:30:32;4.22;;;3.28;;
75316;SDS011;63913;51.492;10.368;2023-07-20T03:32:58;3.70;;;3.15;;
75316;SDS011;63913;51.492;10.368;2023-07-20T03:35:23;3.90;;;3.03;;
75316;SDS011;63913;51.492;10.368;2023-07-20T03:37:49;4.90;;;3.20;;
75316;SDS011;63913;51.492;10.368;2023-07-20T03:40:14;5.53;;;3.30;;
75316;SDS011;63913;51.492;10.368;2023-07-20T03:42:40;4.18;;;3.00;;
75316;SDS011;63913;51.492;10.368;2023-07-20T03:45:06;5.20;;;3.00;;
75316;SDS011;63913;51.492;10.368;2023-07-20T03:47:32;4.53;;;3.60;;
75316;SDS011;63913;51.492;10.368;2023-07-20T03:49:58;3.83;;;2.92;;
75316;SDS011;63913;51.492;10.368;2023-07-20T03:52:23;4.13;;;2.72;;
75316;SDS011;63913;51.492;10.368;2023-07-20T03:54:49;4.53;;;2.88;;
75316;SDS011;63913;51.492;10.368;2023-07-20T03:57:16;4.95;;;3.00;;
75316;SDS011;63913;51.492;10.368;2023-07-20T03:59:44;3.38;;;2.70;;
75316;SDS011;63913;51.492;10.368;2023-07-20T04:02:11;4.20;;;2.70;;
75316;SDS011;63913;51.492;10.368;2023-07-20T04:04:36;4.65;;;2.95;;
75316;SDS011;63913;51.492;10.368;2023-07-20T04:07:02;3.50;;;2.90;;
75316;SDS011;63913;51.492;10.368;2023-07-20T04:09:27;3.97;;;2.55;;
75316;SDS011;63913;51.492;10.368;2023-07-20T04:11:53;3.60;;;2.75;;
75316;SDS011;63913;51.492;10.368;2023-07-20T04:14:18;3.90;;;2.75;;
75316;SDS011;63913;51.492;10.368;2023-07-20T04:16:45;5.70;;;3.40;;
75316;SDS011;63913;51.492;10.368;2023-07-20T04:19:12;4.93;;;2.95;;
75316;SDS011;63913;51.492;10.368;2023-07-20T04:21:41;3.50;;;3.15;;
75316;SDS011;63913;51.492;10.368;2023-07-20T04:24:07;4.03;;;3.33;;
75316;SDS011;63913;51.492;10.368;2023-07-20T04:26:32;4.07;;;3.47;;
75316;SDS011;63913;51.492;10.368;2023-07-20T04:28:58;4.75;;;3.20;;
75316;SDS011;63913;51.492;10.368;2023-07-20T04:31:36;4.50;;;3.45;;
75316;SDS011;63913;51.492;10.368;2023-07-20T04:34:02;3.50;;;3.20;;
75316;SDS011;63913;51.492;10.368;2023-07-20T04:36:28;4.32;;;3.13;;
75316;SDS011;63913;51.492;10.368;2023-07-20T04:38:54;4.10;;;3.40;;
75316;SDS011;63913;51.492;10.368;2023-07-20T04:41:21;3.35;;;2.88;;
75316;SDS011;63913;51.492;10.368;2023-07-20T04:43:48;3.47;;;2.70;;
75316;SDS011;63913;51.492;10.368;2023-07-20T04:46:20;2.92;;;2.63;;
75316;SDS011;63913;51.492;10.368;2023-07-20T04:48:47;5.18;;;2.50;;
75316;SDS011;63913;51.492;10.368;2023-07-20T04:51:13;3.88;;;2.30;;
75316;SDS011;63913;51.492;10.368;2023-07-20T04:53:39;2.65;;;2.40;;
75316;SDS011;63913;51.492;10.368;2023-07-20T04:56:05;3.40;;;2.47;;
75316;SDS011;63913;51.492;10.368;2023-07-20T04:58:31;4.07;;;2.88;;
75316;SDS011;63913;51.492;10.368;2023-07-20T05:00:56;4.68;;;2.60;;
75316;SDS011;63913;51.492;10.368;2023-07-20T05:03:21;4.50;;;2.90;;
75316;SDS011;63913;51.492;10.368;2023-07-20T05:05:47;3.78;;;2.40;;
75316;SDS011;63913;51.492;10.368;2023-07-20T05:08:14;5.72;;;2.70;;
75316;SDS011;63913;51.492;10.368;2023-07-20T05:10:39;3.30;;;2.60;;
75316;SDS011;63913;51.492;10.368;2023-07-20T05:13:05;3.83;;;2.78;;
75316;SDS011;63913;51.492;10.368;2023-07-20T05:15:32;4.55;;;2.92;;
75316;SDS011;63913;51.492;10.368;2023-07-20T05:17:58;4.68;;;3.30;;
75316;SDS011;63913;51.492;10.368;2023-07-20T05:20:24;5.47;;;3.30;;
75316;SDS011;63913;51.492;10.368;2023-07-20T05:22:49;5.22;;;3.42;;
75316;SDS011;63913;51.492;10.368;2023-07-20T05:25:15;4.53;;;3.42;;
75316;SDS011;63913;51.492;10.368;2023-07-20T05:27:43;6.82;;;3.38;;
75316;SDS011;63913;51.492;10.368;2023-07-20T05:30:09;4.65;;;3.80;;
75316;SDS011;63913;51.492;10.368;2023-07-20T05:32:35;4.53;;;3.22;;
75316;SDS011;63913;51.492;10.368;2023-07-20T05:35:00;4.63;;;3.30;;
75316;SDS011;63913;51.492;10.368;2023-07-20T05:37:26;5.38;;;3.92;;
75316;SDS011;63913;51.492;10.368;2023-07-20T05:39:52;7.68;;;3.88;;
75316;SDS011;63913;51.492;10.368;2023-07-20T05:42:17;4.60;;;3.78;;
75316;SDS011;63913;51.492;10.368;2023-07-20T05:44:42;4.85;;;3.78;;
75316;SDS011;63913;51.492;10.368;2023-07-20T05:47:08;5.78;;;4.22;;
75316;SDS011;63913;51.492;10.368;2023-07-20T05:49:36;7.85;;;4.22;;
75316;SDS011;63913;51.492;10.368;2023-07-20T05:52:02;6.03;;;4.55;;
75316;SDS011;63913;51.492;10.368;2023-07-20T05:54:27;7.53;;;4.32;;
75316;SDS011;63913;51.492;10.368;2023-07-20T05:56:53;5.75;;;4.20;;
75316;SDS011;63913;51.492;10.368;2023-07-20T05:59:19;6.30;;;4.60;;
75316;SDS011;63913;51.492;10.368;2023-07-20T06:01:45;8.25;;;5.15;;
75316;SDS011;63913;51.492;10.368;2023-07-20T06:04:10;7.70;;;4.93;;
75316;SDS011;63913;51.492;10.368;2023-07-20T06:06:36;6.45;;;4.60;;
75316;SDS011;63913;51.492;10.368;2023-07-20T06:09:01;8.48;;;4.78;;
75316;SDS011;63913;51.492;10.368;2023-07-20T06:11:32;6.63;;;4.88;;
75316;SDS011;63913;51.492;10.368;2023-07-20T06:13:58;6.90;;;5.18;;
75316;SDS011;63913;51.492;10.368;2023-07-20T06:16:24;7.75;;;4.63;;
75316;SDS011;63913;51.492;10.368;2023-07-20T06:18:52;8.77;;;4.95;;
75316;SDS011;63913;51.492;10.368;2023-07-20T06:21:17;7.70;;;5.00;;
75316;SDS011;63913;51.492;10.368;2023-07-20T06:23:43;8.40;;;5.53;;
75316;SDS011;63913;51.492;10.368;2023-07-20T06:26:08;5.47;;;4.38;;
75316;SDS011;63913;51.492;10.368;2023-07-20T06:28:33;6.55;;;4.75;;
75316;SDS011;63913;51.492;10.368;2023-07-20T06:31:00;7.30;;;4.70;;
75316;SDS011;63913;51.492;10.368;2023-07-20T06:33:26;8.07;;;5.15;;
75316;SDS011;63913;51.492;10.368;2023-07-20T06:35:52;9.00;;;5.22;;
75316;SDS011;63913;51.492;10.368;2023-07-20T06:38:18;8.25;;;5.38;;
75316;SDS011;63913;51.492;10.368;2023-07-20T06:40:45;8.40;;;5.82;;
75316;SDS011;63913;51.492;10.368;2023-07-20T06:43:11;11.98;;;5.80;;
75316;SDS011;63913;51.492;10.368;2023-07-20T06:45:36;9.63;;;6.00;;
75316;SDS011;63913;51.492;10.368;2023-07-20T06:48:02;8.05;;;5.93;;
75316;SDS011;63913;51.492;10.368;2023-07-20T06:50:27;9.15;;;6.28;;
75316;SDS011;63913;51.492;10.368;2023-07-20T06:52:53;12.02;;;6.88;;
75316;SDS011;63913;51.492;10.368;2023-07-20T06:55:18;11.52;;;6.60;;
75316;SDS011;63913;51.492;10.368;2023-07-20T06:57:43;9.45;;;6.15;;
75316;SDS011;63913;51.492;10.368;2023-07-20T07:00:09;9.35;;;5.95;;
75316;SDS011;63913;51.492;10.368;2023-07-20T07:02:35;7.57;;;6.07;;
75316;SDS011;63913;51.492;10.368;2023-07-20T07:05:00;7.63;;;5.75;;
75316;SDS011;63913;51.492;10.368;2023-07-20T07:07:26;10.07;;;6.47;;
75316;SDS011;63913;51.492;10.368;2023-07-20T07:09:52;8.40;;;5.45;;
75316;SDS011;63913;51.492;10.368;2023-07-20T07:12:17;8.50;;;5.85;;
75316;SDS011;63913;51.492;10.368;2023-07-20T07:14:43;9.85;;;5.18;;
75316;SDS011;63913;51.492;10.368;2023-07-20T07:17:08;7.72;;;5.18;;
75316;SDS011;63913;51.492;10.368;2023-07-20T07:19:33;7.65;;;5.65;;
75316;SDS011;63913;51.492;10.368;2023-07-20T07:21:59;7.25;;;5.25;;
75316;SDS011;63913;51.492;10.368;2023-07-20T07:24:24;7.55;;;4.97;;
75316;SDS011;63913;51.492;10.368;2023-07-20T07:26:50;8.25;;;5.60;;
75316;SDS011;63913;51.492;10.368;2023-07-20T07:29:15;8.57;;;5.82;;
75316;SDS011;63913;51.492;10.368;2023-07-20T07:31:40;7.45;;;5.05;;
75316;SDS011;63913;51.492;10.368;2023-07-20T07:34:06;8.38;;;4.70;;
75316;SDS011;63913;51.492;10.368;2023-07-20T07:36:32;8.43;;;5.18;;
75316;SDS011;63913;51.492;10.368;2023-07-20T07:38:58;6.50;;;4.45;;
75316;SDS011;63913;51.492;10.368;2023-07-20T07:41:23;6.78;;;4.78;;
75316;SDS011;63913;51.492;10.368;2023-07-20T07:43:49;8.50;;;4.47;;
75316;SDS011;63913;51.492;10.368;2023-07-20T07:46:14;5.43;;;4.22;;
75316;SDS011;63913;51.492;10.368;2023-07-20T07:48:40;7.20;;;4.15;;
75316;SDS011;63913;51.492;10.368;2023-07-20T07:51:05;5.10;;;3.70;;
75316;SDS011;63913;51.492;10.368;2023-07-20T07:53:31;4.78;;;3.58;;
75316;SDS011;63913;51.492;10.368;2023-07-20T07:55:57;5.30;;;3.40;;
75316;SDS011;63913;51.492;10.368;2023-07-20T07:58:23;4.28;;;3.42;;
75316;SDS011;63913;51.492;10.368;2023-07-20T08:00:49;5.18;;;3.42;;
75316;SDS011;63913;51.492;10.368;2023-07-20T08:03:14;5.47;;;3.40;;
75316;SDS011;63913;51.492;10.368;2023-07-20T08:05:40;4.03;;;3.03;;
75316;SDS011;63913;51.492;10.368;2023-07-20T08:08:05;6.05;;;3.60;;
75316;SDS011;63913;51.492;10.368;2023-07-20T08:10:31;4.30;;;3.05;;
75316;SDS011;63913;51.492;10.368;2023-07-20T08:12:57;2.95;;;2.22;;
75316;SDS011;63913;51.492;10.368;2023-07-20T08:15:22;2.10;;;1.90;;
75316;SDS011;63913;51.492;10.368;2023-07-20T08:17:48;3.35;;;2.10;;
75316;SDS011;63913;51.492;10.368;2023-07-20T08:20:16;3.55;;;2.45;;
75316;SDS011;63913;51.492;10.368;2023-07-20T08:22:42;4.10;;;2.55;;
75316;SDS011;63913;51.492;10.368;2023-07-20T08:25:08;4.75;;;2.50;;
75316;SDS011;63913;51.492;10.368;2023-07-20T08:27:34;3.08;;;2.22;;
75316;SDS011;63913;51.492;10.368;2023-07-20T08:30:00;4.97;;;2.85;;
75316;SDS011;63913;51.492;10.368;2023-07-20T08:32:25;3.17;;;2.72;;
75316;SDS011;63913;51.492;10.368;2023-07-20T08:34:51;3.65;;;2.72;;
75316;SDS011;63913;51.492;10.368;2023-07-20T08:37:16;3.70;;;2.60;;
75316;SDS011;63913;51.492;10.368;2023-07-20T08:39:42;2.95;;;1.90;;
75316;SDS011;63913;51.492;10.368;2023-07-20T08:42:07;2.20;;;1.70;;
75316;SDS011;63913;51.492;10.368;2023-07-20T08:44:36;2.17;;;1.52;;
75316;SDS011;63913;51.492;10.368;2023-07-20T08:47:03;1.92;;;1.55;;
75316;SDS011;63913;51.492;10.368;2023-07-20T08:49:31;2.20;;;1.42;;
75316;SDS011;63913;51.492;10.368;2023-07-20T08:51:57;1.95;;;1.58;;
75316;SDS011;63913;51.492;10.368;2023-07-20T08:54:24;2.20;;;1.98;;
75316;SDS011;63913;51.492;10.368;2023-07-20T08:56:52;1.50;;;1.35;;
75316;SDS011;63913;51.492;10.368;2023-07-20T08:59:22;1.70;;;1.60;;
75316;SDS011;63913;51.492;10.368;2023-07-20T09:01:49;1.90;;;1.73;;
75316;SDS011;63913;51.492;10.368;2023-07-20T09:04:17;1.73;;;1.63;;
75316;SDS011;63913;51.492;10.368;2023-07-20T09:06:43;1.50;;;1.40;;
75316;SDS011;63913;51.492;10.368;2023-07-20T09:09:08;1.20;;;1.20;;
75316;SDS011;63913;51.492;10.368;2023-07-20T09:11:33;1.20;;;1.10;;
75316;SDS011;63913;51.492;10.368;2023-07-20T09:14:05;1.65;;;1.55;;
75316;SDS011;63913;51.492;10.368;2023-07-20T09:16:32;1.70;;;1.60;;
75316;SDS011;63913;51.492;10.368;2023-07-20T09:19:11;1.60;;;1.38;;
75316;SDS011;63913;51.492;10.368;2023-07-20T09:21:37;1.90;;;1.33;;
75316;SDS011;63913;51.492;10.368;2023-07-20T09:24:02;1.42;;;1.33;;
75316;SDS011;63913;51.492;10.368;2023-07-20T09:26:28;1.80;;;1.60;;
75316;SDS011;63913;51.492;10.368;2023-07-20T09:28:53;1.60;;;1.45;;
75316;SDS011;63913;51.492;10.368;2023-07-20T09:31:21;1.63;;;1.52;;
75316;SDS011;63913;51.492;10.368;2023-07-20T09:33:47;2.03;;;1.75;;
75316;SDS011;63913;51.492;10.368;2023-07-20T09:36:14;1.40;;;1.30;;
75316;SDS011;63913;51.492;10.368;2023-07-20T09:38:41;1.70;;;1.40;;
75316;SDS011;63913;51.492;10.368;2023-07-20T09:41:13;1.42;;;1.30;;
75316;SDS011;63913;51.492;10.368;2023-07-20T09:43:40;1.23;;;1.15;;
75316;SDS011;63913;51.492;10.368;2023-07-20T09:46:06;1.27;;;1.20;;
75316;SDS011;63913;51.492;10.368;2023-07-20T09:48:32;1.27;;;1.00;;
75316;SDS011;63913;51.492;10.368;2023-07-20T09:50:57;1.52;;;1.20;;
75316;SDS011;63913;51.492;10.368;2023-07-20T09:53:24;0.93;;;0.90;;
75316;SDS011;63913;51.492;10.368;2023-07-20T09:55:50;1.20;;;1.10;;
75316;SDS011;63913;51.492;10.368;2023-07-20T09:58:17;1.98;;;1.23;;
75316;SDS011;63913;51.492;10.368;2023-07-20T10:00:43;1.10;;;1.00;;
75316;SDS011;63913;51.492;10.368;2023-07-20T10:03:16;1.08;;;1.05;;
75316;SDS011;63913;51.492;10.368;2023-07-20T10:05:48;1.98;;;1.33;;
75316;SDS011;63913;51.492;10.368;2023-07-20T10:08:19;1.27;;;1.17;;
75316;SDS011;63913;51.492;10.368;2023-07-20T10:10:48;1.45;;;1.20;;
75316;SDS011;63913;51.492;10.368;2023-07-20T10:13:17;1.20;;;1.10;;
75316;SDS011;63913;51.492;10.368;2023-07-20T10:15:46;1.50;;;1.10;;
75316;SDS011;63913;51.492;10.368;2023-07-20T10:18:25;2.53;;;1.10;;
75316;SDS011;63913;51.492;10.368;2023-07-20T10:20:55;0.80;;;0.80;;
75316;SDS011;63913;51.492;10.368;2023-07-20T10:23:22;1.17;;;1.00;;
75316;SDS011;63913;51.492;10.368;2023-07-20T10:25:48;0.93;;;0.90;;
75316;SDS011;63913;51.492;10.368;2023-07-20T10:28:15;0.93;;;0.93;;
75316;SDS011;63913;51.492;10.368;2023-07-20T10:30:41;2.78;;;1.40;;
75316;SDS011;63913;51.492;10.368;2023-07-20T10:33:07;0.90;;;0.90;;
75316;SDS011;63913;51.492;10.368;2023-07-20T10:38:56;1.35;;;0.90;;
75316;SDS011;63913;51.492;10.368;2023-07-20T10:43:45;1.10;;;1.00;;
75316;SDS011;63913;51.492;10.368;2023-07-20T10:46:13;1.10;;;1.00;;
75316;SDS011;63913;51.492;10.368;2023-07-20T10:48:58;0.80;;;0.80;;
75316;SDS011;63913;51.492;10.368;2023-07-20T10:51:25;1.35;;;0.90;;
75316;SDS011;63913;51.492;10.368;2023-07-20T10:53:51;0.70;;;0.70;;
75316;SDS011;63913;51.492;10.368;2023-07-20T10:56:21;0.70;;;0.70;;
75316;SDS011;63913;51.492;10.368;2023-07-20T10:58:47;0.98;;;0.73;;
75316;SDS011;63913;51.492;10.368;2023-07-20T11:01:13;0.75;;;0.75;;
75316;SDS011;63913;51.492;10.368;2023-07-20T11:03:41;1.77;;;0.60;;
75316;SDS011;63913;51.492;10.368;2023-07-20T11:06:29;0.70;;;0.70;;
75316;SDS011;63913;51.492;10.368;2023-07-20T11:09:03;0.80;;;0.80;;
75316;SDS011;63913;51.492;10.368;2023-07-20T11:11:34;0.93;;;0.57;;
75316;SDS011;63913;51.492;10.368;2023-07-20T11:14:01;1.13;;;1.08;;
75316;SDS011;63913;51.492;10.368;2023-07-20T11:16:35;0.70;;;0.70;;
75316;SDS011;63913;51.492;10.368;2023-07-20T11:19:13;0.70;;;0.70;;
75316;SDS011;63913;51.492;10.368;2023-07-20T11:21:44;0.60;;;0.60;;
75316;SDS011;63913;51.492;10.368;2023-07-20T11:24:11;1.35;;;0.60;;
75316;SDS011;63913;51.492;10.368;2023-07-20T11:26:44;1.08;;;0.88;;
75316;SDS011;63913;51.492;10.368;2023-07-20T11:29:10;0.75;;;0.70;;
75316;SDS011;63913;51.492;10.368;2023-07-20T11:31:37;0.60;;;0.60;;
75316;SDS011;63913;51.492;10.368;2023-07-20T11:34:16;2.72;;;0.80;;
75316;SDS011;63913;51.492;10.368;2023-07-20T11:36:44;1.63;;;0.90;;
75316;SDS011;63913;51.492;10.368;2023-07-20T11:39:11;1.55;;;0.75;;
75316;SDS011;63913;51.492;10.368;2023-07-20T11:41:38;0.93;;;0.70;;
75316;SDS011;63913;51.492;10.368;2023-07-20T11:46:41;0.65;;;0.52;;
75316;SDS011;63913;51.492;10.368;2023-07-20T11:49:07;0.88;;;0.50;;
75316;SDS011;63913;51.492;10.368;2023-07-20T11:51:34;0.75;;;0.60;;
75316;SDS011;63913;51.492;10.368;2023-07-20T11:54:00;0.57;;;0.57;;
75316;SDS011;63913;51.492;10.368;2023-07-20T11:56:27;0.55;;;0.40;;
75316;SDS011;63913;51.492;10.368;2023-07-20T11:58:55;0.50;;;0.50;;
75316;SDS011;63913;51.492;10.368;2023-07-20T12:01:24;0.40;;;0.40;;
75316;SDS011;63913;51.492;10.368;2023-07-20T12:03:53;0.50;;;0.50;;
75316;SDS011;63913;51.492;10.368;2023-07-20T12:06:22;0.60;;;0.60;;
75316;SDS011;63913;51.492;10.368;2023-07-20T12:08:49;0.70;;;0.70;;
75316;SDS011;63913;51.492;10.368;2023-07-20T12:11:14;0.40;;;0.40;;
75316;SDS011;63913;51.492;10.368;2023-07-20T12:14:02;0.45;;;0.45;;
75316;SDS011;63913;51.492;10.368;2023-07-20T12:16:29;1.70;;;0.40;;
75316;SDS011;63913;51.492;10.368;2023-07-20T12:19:11;1.45;;;0.40;;
75316;SDS011;63913;51.492;10.368;2023-07-20T12:21:39;0.40;;;0.40;;
75316;SDS011;63913;51.492;10.368;2023-07-20T12:24:07;0.60;;;0.60;;
75316;SDS011;63913;51.492;10.368;2023-07-20T12:26:36;0.40;;;0.40;;
75316;SDS011;63913;51.492;10.368;2023-07-20T12:29:02;1.95;;;0.30;;
75316;SDS011;63913;51.492;10.368;2023-07-20T12:31:28;1.02;;;0.40;;
75316;SDS011;63913;51.492;10.368;2023-07-20T12:33:56;4.03;;;2.45;;
75316;SDS011;63913;51.492;10.368;2023-07-20T12:36:22;1.98;;;1.08;;
75316;SDS011;63913;51.492;10.368;2023-07-20T12:38:48;0.43;;;0.43;;
75316;SDS011;63913;51.492;10.368;2023-07-20T12:41:14;0.70;;;0.70;;
75316;SDS011;63913;51.492;10.368;2023-07-20T12:43:43;0.50;;;0.50;;
75316;SDS011;63913;51.492;10.368;2023-07-20T12:46:09;0.50;;;0.50;;
75316;SDS011;63913;51.492;10.368;2023-07-20T12:48:37;0.57;;;0.50;;
75316;SDS011;63913;51.492;10.368;2023-07-20T12:51:03;0.45;;;0.45;;
75316;SDS011;63913;51.492;10.368;2023-07-20T12:53:30;0.73;;;0.73;;
75316;SDS011;63913;51.492;10.368;2023-07-20T12:55:56;0.70;;;0.63;;
75316;SDS011;63913;51.492;10.368;2023-07-20T12:58:22;0.50;;;0.50;;
75316;SDS011;63913;51.492;10.368;2023-07-20T13:00:48;0.50;;;0.50;;
75316;SDS011;63913;51.492;10.368;2023-07-20T13:03:16;0.43;;;0.43;;
75316;SDS011;63913;51.492;10.368;2023-07-20T13:05:43;0.70;;;0.70;;
75316;SDS011;63913;51.492;10.368;2023-07-20T13:08:09;0.60;;;0.60;;
75316;SDS011;63913;51.492;10.368;2023-07-20T13:10:35;0.50;;;0.50;;
75316;SDS011;63913;51.492;10.368;2023-07-20T13:13:02;0.57;;;0.57;;
75316;SDS011;63913;51.492;10.368;2023-07-20T13:15:32;0.40;;;0.40;;
75316;SDS011;63913;51.492;10.368;2023-07-20T13:17:58;0.70;;;0.70;;
75316;SDS011;63913;51.492;10.368;2023-07-20T13:20:24;0.85;;;0.73;;
75316;SDS011;63913;51.492;10.368;2023-07-20T13:22:50;2.45;;;1.95;;
75316;SDS011;63913;51.492;10.368;2023-07-20T13:25:16;2.08;;;1.17;;
75316;SDS011;63913;51.492;10.368;2023-07-20T13:27:41;0.82;;;0.80;;
75316;SDS011;63913;51.492;10.368;2023-07-20T13:30:07;0.73;;;0.70;;
75316;SDS011;63913;51.492;10.368;2023-07-20T13:32:35;0.80;;;0.77;;
75316;SDS011;63913;51.492;10.368;2023-07-20T13:35:01;0.90;;;0.90;;
75316;SDS011;63913;51.492;10.368;2023-07-20T13:37:27;2.08;;;0.57;;
75316;SDS011;63913;51.492;10.368;2023-07-20T13:39:53;0.70;;;0.70;;
75316;SDS011;63913;51.492;10.368;2023-07-20T13:42:19;0.45;;;0.40;;
75316;SDS011;63913;51.492;10.368;2023-07-20T13:44:49;1.33;;;0.60;;
75316;SDS011;63913;51.492;10.368;2023-07-20T13:47:15;0.93;;;0.85;;
75316;SDS011;63913;51.492;10.368;2023-07-20T13:49:40;0.75;;;0.75;;
75316;SDS011;63913;51.492;10.368;2023-07-20T13:52:06;0.80;;;0.80;;
75316;SDS011;63913;51.492;10.368;2023-07-20T13:54:31;0.57;;;0.57;;
75316;SDS011;63913;51.492;10.368;2023-07-20T13:56:57;1.73;;;0.70;;
75316;SDS011;63913;51.492;10.368;2023-07-20T13:59:23;0.50;;;0.50;;
75316;SDS011;63913;51.492;10.368;2023-07-20T14:01:48;0.50;;;0.50;;
75316;SDS011;63913;51.492;10.368;2023-07-20T14:04:14;0.57;;;0.57;;
75316;SDS011;63913;51.492;10.368;2023-07-20T14:06:40;2.03;;;0.90;;
75316;SDS011;63913;51.492;10.368;2023-07-20T14:09:05;0.73;;;0.73;;
75316;SDS011;63913;51.492;10.368;2023-07-20T14:11:31;0.70;;;0.70;;
75316;SDS011;63913;51.492;10.368;2023-07-20T14:13:56;1.00;;;0.60;;
75316;SDS011;63913;51.492;10.368;2023-07-20T14:16:23;0.70;;;0.60;;
75316;SDS011;63913;51.492;10.368;2023-07-20T14:18:49;2.38;;;0.60;;
75316;SDS011;63913;51.492;10.368;2023-07-20T14:21:15;1.85;;;0.60;;
75316;SDS011;63913;51.492;10.368;2023-07-20T14:23:41;0.70;;;0.70;;
75316;SDS011;63913;51.492;10.368;2023-07-20T14:26:06;0.70;;;0.70;;
75316;SDS011;63913;51.492;10.368;2023-07-20T14:28:34;0.75;;;0.70;;
75316;SDS011;63913;51.492;10.368;2023-07-20T14:31:00;0.73;;;0.73;;
75316;SDS011;63913;51.492;10.368;2023-07-20T14:33:25;0.50;;;0.50;;
75316;SDS011;63913;51.492;10.368;2023-07-20T14:35:51;2.47;;;0.65;;
75316;SDS011;63913;51.492;10.368;2023-07-20T14:38:16;0.52;;;0.52;;
75316;SDS011;63913;51.492;10.368;2023-07-20T14:40:41;1.35;;;1.23;;
75316;SDS011;63913;51.492;10.368;2023-07-20T14:43:07;16.70;;;9.65;;
75316;SDS011;63913;51.492;10.368;2023-07-20T14:45:33;15.30;;;7.75;;
75316;SDS011;63913;51.492;10.368;2023-07-20T14:47:59;1.55;;;0.60;;